Time;durP1;ratioP1;P1;durP2;ratioP2;P2;SDS_P1;SDS_P2;PMS_P1;PMS_P2;Temp;Humidity;BMP_temperature;BMP_pressure;BME280_temperature;BME280_humidity;BME280_pressure;Samples;Min_cycle;Max_cycle;Signal;HPM_P1;HPM_P2
2023/07/10 00:01:02;;;;;;;10.43;7.30;;;24.80;40.90;;;;;;6112502;23;114810;-78
2023/07/10 00:03:30;;;;;;;9.68;6.63;;;24.80;41.00;;;;;;6114608;22;114413;-78
2023/07/10 00:05:57;;;;;;;11.98;7.30;;;24.80;41.10;;;;;;6114732;23;114302;-78
2023/07/10 00:08:26;;;;;;;9.27;7.10;;;24.80;41.20;;;;;;6113252;23;116145;-78
2023/07/10 00:10:54;;;;;;;10.02;6.95;;;24.80;41.10;;;;;;6088158;23;117748;-78
2023/07/10 00:13:21;;;;;;;9.27;6.95;;;24.80;41.20;;;;;;6089017;23;114333;-79
2023/07/10 00:15:50;;;;;;;9.55;6.88;;;24.80;41.00;;;;;;6113135;23;114041;-78
2023/07/10 00:18:19;;;;;;;9.05;7.13;;;24.80;41.10;;;;;;6113410;23;114856;-78
2023/07/10 00:20:46;;;;;;;11.70;8.13;;;24.80;40.90;;;;;;6113452;23;114621;-78
2023/07/10 00:23:14;;;;;;;10.20;7.20;;;24.80;40.50;;;;;;6114440;23;114450;-78
2023/07/10 00:25:41;;;;;;;12.50;8.02;;;24.80;41.00;;;;;;6115351;23;114247;-78
2023/07/10 00:28:16;;;;;;;13.23;8.00;;;24.80;41.10;;;;;;6110655;23;115705;-79
2023/07/10 00:30:48;;;;;;;10.10;7.25;;;24.70;41.00;;;;;;6086552;23;116600;-78
2023/07/10 00:33:16;;;;;;;12.25;8.55;;;24.70;41.20;;;;;;6111941;23;114157;-78
2023/07/10 00:35:43;;;;;;;13.32;7.25;;;24.70;40.40;;;;;;6112883;23;114358;-79
2023/07/10 00:38:25;;;;;;;11.48;7.20;;;24.60;41.40;;;;;;6111970;23;116267;-78
2023/07/10 00:40:53;;;;;;;10.13;6.78;;;24.60;41.30;;;;;;6113314;23;114559;-78
2023/07/10 00:43:39;;;;;;;10.60;6.78;;;24.60;41.50;;;;;;6112832;23;114128;-78
2023/07/10 00:46:16;;;;;;;11.80;7.55;;;24.60;41.30;;;;;;6113079;22;114329;-78
2023/07/10 00:48:49;;;;;;;9.57;7.25;;;24.70;41.30;;;;;;6111727;23;114767;-79
2023/07/10 00:51:38;;;;;;;12.63;7.85;;;24.60;41.40;;;;;;6111903;23;115668;-78
2023/07/10 00:54:08;;;;;;;8.85;6.57;;;24.70;41.10;;;;;;6114555;22;114380;-78
2023/07/10 00:56:40;;;;;;;10.18;7.40;;;24.60;41.20;;;;;;6088017;23;114311;-78
2023/07/10 00:59:22;;;;;;;8.35;6.78;;;24.60;41.30;;;;;;6110435;23;118247;-78
2023/07/10 01:02:08;;;;;;;9.77;7.85;;;24.60;41.20;;;;;;6136757;22;114590;-78
2023/07/10 01:04:36;;;;;;;10.77;8.10;;;24.70;41.00;;;;;;6114398;22;114041;-78
2023/07/10 01:07:03;;;;;;;10.85;7.68;;;24.60;41.00;;;;;;6112833;23;114054;-78
2023/07/10 01:09:30;;;;;;;10.15;6.95;;;24.60;40.90;;;;;;6136481;22;115380;-79
2023/07/10 01:11:58;;;;;;;12.35;7.50;;;24.60;41.40;;;;;;6111341;23;114544;-78
2023/07/10 01:14:26;;;;;;;10.98;7.00;;;24.60;41.20;;;;;;6088110;23;114150;-78
2023/07/10 01:16:53;;;;;;;10.07;6.70;;;24.50;41.40;;;;;;6114655;23;113989;-79
2023/07/10 01:19:21;;;;;;;9.40;7.32;;;24.50;41.60;;;;;;6136171;22;115006;-77
2023/07/10 01:21:50;;;;;;;11.60;6.63;;;24.50;41.00;;;;;;6087187;23;114712;-78
2023/07/10 01:24:17;;;;;;;11.07;7.68;;;24.50;41.30;;;;;;6112574;23;114400;-77
2023/07/10 01:26:44;;;;;;;10.38;7.03;;;24.50;41.10;;;;;;6087501;23;114598;-78
2023/07/10 01:29:22;;;;;;;13.00;7.55;;;24.50;41.30;;;;;;6111321;23;114922;-79
2023/07/10 01:31:50;;;;;;;9.10;6.85;;;24.50;41.30;;;;;;6086313;23;117461;-77
2023/07/10 01:34:18;;;;;;;12.15;7.90;;;24.60;41.50;;;;;;6112244;22;114456;-78
2023/07/10 01:36:45;;;;;;;9.90;7.10;;;24.50;41.40;;;;;;6064107;23;114517;-78
2023/07/10 01:39:15;;;;;;;11.32;8.00;;;24.50;41.40;;;;;;6111244;23;114991;-78
2023/07/10 01:41:44;;;;;;;9.13;7.43;;;24.50;40.70;;;;;;6136470;22;114548;-79
2023/07/10 01:44:19;;;;;;;10.73;7.82;;;24.50;41.40;;;;;;6113924;23;114075;-77
2023/07/10 01:46:49;;;;;;;10.43;7.50;;;24.60;40.90;;;;;;6112357;23;114222;-78
2023/07/10 01:49:21;;;;;;;9.75;7.00;;;24.50;41.40;;;;;;6112143;23;114886;-77
2023/07/10 01:51:48;;;;;;;10.43;7.68;;;24.40;41.30;;;;;;6111423;23;114495;-78
2023/07/10 01:54:16;;;;;;;11.00;7.25;;;24.50;40.90;;;;;;6112084;23;114207;-78
2023/07/10 01:56:43;;;;;;;8.45;7.07;;;24.40;41.40;;;;;;6112417;23;114326;-78
2023/07/10 01:59:10;;;;;;;9.13;7.00;;;24.50;41.50;;;;;;6086767;23;116025;-79
2023/07/10 02:01:37;;;;;;;8.10;7.10;;;24.50;41.30;;;;;;6086296;23;117516;-78
2023/07/10 02:04:08;;;;;;;10.63;7.82;;;24.40;41.10;;;;;;6112102;23;114480;-77
2023/07/10 02:06:36;;;;;;;10.68;7.53;;;24.40;41.50;;;;;;6114470;23;114365;-77
2023/07/10 02:09:04;;;;;;;9.13;7.80;;;24.40;41.60;;;;;;6087937;23;114804;-78
2023/07/10 02:11:34;;;;;;;9.38;6.40;;;24.30;41.60;;;;;;6112384;23;115018;-78
2023/07/10 02:14:06;;;;;;;10.68;7.28;;;24.30;41.80;;;;;;6113429;23;114111;-76
2023/07/10 02:16:35;;;;;;;10.02;7.80;;;24.30;41.70;;;;;;6113368;23;114491;-78
2023/07/10 02:19:03;;;;;;;9.90;7.38;;;24.30;41.70;;;;;;6113853;23;114932;-78
2023/07/10 02:21:32;;;;;;;9.38;7.20;;;24.30;41.70;;;;;;6137214;22;114662;-77
2023/07/10 02:23:59;;;;;;;8.90;6.55;;;24.30;41.80;;;;;;6113769;23;114258;-78
2023/07/10 02:26:28;;;;;;;9.73;7.13;;;24.30;41.90;;;;;;6089212;23;114104;-78
2023/07/10 02:28:57;;;;;;;10.27;7.28;;;24.30;41.80;;;;;;6114302;23;114929;-77
2023/07/10 02:31:25;;;;;;;11.13;7.63;;;24.30;41.80;;;;;;6114568;22;114878;-78
2023/07/10 02:33:52;;;;;;;10.73;7.13;;;24.30;41.70;;;;;;6113726;23;114286;-77
2023/07/10 02:36:20;;;;;;;10.48;7.25;;;24.30;41.90;;;;;;6115352;22;114204;-77
2023/07/10 02:38:47;;;;;;;11.13;6.85;;;24.30;41.60;;;;;;6112161;23;116086;-77
2023/07/10 02:41:14;;;;;;;9.65;7.43;;;24.30;41.70;;;;;;6114185;23;114620;-78
2023/07/10 02:43:41;;;;;;;8.77;6.97;;;24.30;41.80;;;;;;6088990;23;114261;-77
2023/07/10 02:46:08;;;;;;;8.43;6.75;;;24.30;41.70;;;;;;6115672;23;114028;-78
2023/07/10 02:48:35;;;;;;;8.88;7.38;;;24.30;41.60;;;;;;6138422;22;115067;-78
2023/07/10 02:51:02;;;;;;;9.07;7.32;;;24.30;41.60;;;;;;6113315;23;114996;-77
2023/07/10 02:53:31;;;;;;;10.43;7.80;;;24.30;41.40;;;;;;6138599;22;114367;-77
2023/07/10 02:55:58;;;;;;;11.60;7.65;;;24.30;41.40;;;;;;6139262;22;114304;-77
2023/07/10 02:58:25;;;;;;;9.73;7.93;;;24.30;40.80;;;;;;6111907;23;115765;-77
2023/07/10 03:00:57;;;;;;;8.77;7.00;;;24.30;41.50;;;;;;6087947;23;115939;-78
2023/07/10 03:03:25;;;;;;;10.45;7.05;;;24.40;41.50;;;;;;6115424;23;114336;-78
2023/07/10 03:05:54;;;;;;;10.93;8.00;;;24.40;41.50;;;;;;6139015;22;114194;-79
2023/07/10 03:08:21;;;;;;;10.40;6.65;;;24.40;40.80;;;;;;6113863;22;116464;-76
2023/07/10 03:10:48;;;;;;;8.05;7.18;;;24.40;41.30;;;;;;6111519;23;117172;-79
2023/07/10 03:13:15;;;;;;;9.32;7.25;;;24.40;41.50;;;;;;6115079;22;114025;-79
2023/07/10 03:15:42;;;;;;;8.40;7.03;;;24.40;41.50;;;;;;6138491;22;114225;-77
2023/07/10 03:18:10;;;;;;;9.60;7.57;;;24.40;41.50;;;;;;6113967;22;116499;-77
2023/07/10 03:20:39;;;;;;;10.27;8.02;;;24.40;41.20;;;;;;6112538;23;118401;-78
2023/07/10 03:23:06;;;;;;;10.18;7.20;;;24.40;40.90;;;;;;6113566;22;114198;-77
2023/07/10 03:25:34;;;;;;;10.55;8.15;;;24.50;41.30;;;;;;6115221;23;114379;-78
2023/07/10 03:28:01;;;;;;;12.98;9.55;;;24.60;40.90;;;;;;6112795;23;114919;-77
2023/07/10 03:30:29;;;;;;;9.63;7.10;;;24.60;40.20;;;;;;6113993;23;115051;-78
2023/07/10 03:32:56;;;;;;;11.90;8.52;;;24.60;41.00;;;;;;6113312;23;114404;-78
2023/07/10 03:35:23;;;;;;;11.13;8.00;;;24.60;40.90;;;;;;6114458;23;114252;-78
2023/07/10 03:37:50;;;;;;;10.50;8.07;;;24.60;40.90;;;;;;6113518;23;116033;-78
2023/07/10 03:40:18;;;;;;;10.07;7.78;;;24.60;40.80;;;;;;6114610;23;114233;-78
2023/07/10 03:42:46;;;;;;;11.77;8.23;;;24.70;41.00;;;;;;6113153;23;114118;-77
2023/07/10 03:45:13;;;;;;;13.68;8.93;;;25.00;40.60;;;;;;6114956;22;114297;-78
2023/07/10 03:47:40;;;;;;;9.57;7.82;;;25.20;40.20;;;;;;6113870;23;115061;-78
2023/07/10 03:50:08;;;;;;;9.98;8.18;;;25.40;39.60;;;;;;6136769;22;114696;-78
2023/07/10 03:52:36;;;;;;;10.93;8.77;;;25.50;39.40;;;;;;6137296;22;114206;-78
2023/07/10 03:55:04;;;;;;;12.40;7.85;;;25.50;38.80;;;;;;6114722;23;114418;-78
2023/07/10 03:57:31;;;;;;;12.63;9.18;;;25.50;38.90;;;;;;6111950;23;114839;-78
2023/07/10 03:59:58;;;;;;;9.98;8.10;;;25.50;38.70;;;;;;6113541;23;114728;-78
2023/07/10 04:02:25;;;;;;;11.80;8.98;;;25.70;38.90;;;;;;6114351;23;114252;-77
2023/07/10 04:04:52;;;;;;;10.75;8.65;;;25.80;38.30;;;;;;6114339;23;114189;-77
2023/07/10 04:07:19;;;;;;;12.20;8.73;;;26.00;38.20;;;;;;6113346;23;114922;-78
2023/07/10 04:09:46;;;;;;;10.95;8.13;;;26.20;37.70;;;;;;6112253;23;114597;-78
2023/07/10 04:12:13;;;;;;;10.52;8.52;;;26.20;37.90;;;;;;6113511;23;114281;-78
2023/07/10 04:14:40;;;;;;;12.32;9.07;;;26.20;37.70;;;;;;6090598;23;114070;-78
2023/07/10 04:17:07;;;;;;;12.05;7.70;;;26.10;37.90;;;;;;6114452;22;114940;-78
2023/07/10 04:19:37;;;;;;;10.88;8.13;;;26.10;37.70;;;;;;6113564;23;115027;-78
2023/07/10 04:22:07;;;;;;;9.45;8.43;;;26.20;38.00;;;;;;6114814;23;114339;-78
2023/07/10 04:24:35;;;;;;;10.02;7.35;;;26.20;37.80;;;;;;6114463;23;114133;-78
2023/07/10 04:27:03;;;;;;;9.38;7.45;;;26.10;37.20;;;;;;6112062;23;114800;-79
2023/07/10 04:29:30;;;;;;;8.55;7.63;;;25.90;37.70;;;;;;6114030;23;114633;-79
2023/07/10 04:31:58;;;;;;;13.25;7.65;;;25.80;38.00;;;;;;6112973;23;114134;-78
2023/07/10 04:34:25;;;;;;;9.55;7.68;;;25.80;37.30;;;;;;6112939;23;114300;-79
2023/07/10 04:36:52;;;;;;;10.85;8.13;;;25.80;37.90;;;;;;6113277;23;114916;-78
2023/07/10 04:39:20;;;;;;;11.82;8.52;;;25.70;38.20;;;;;;6113534;23;114591;-78
2023/07/10 04:41:47;;;;;;;11.25;9.13;;;25.70;38.20;;;;;;6113967;23;114417;-78
2023/07/10 04:44:14;;;;;;;10.60;8.23;;;25.70;38.30;;;;;;6113125;23;114153;-79
2023/07/10 04:46:41;;;;;;;12.27;8.68;;;25.70;38.30;;;;;;6113308;23;116094;-79
2023/07/10 04:49:08;;;;;;;10.15;7.80;;;25.80;37.80;;;;;;6136874;22;114869;-79
2023/07/10 04:51:35;;;;;;;14.07;8.40;;;25.80;37.60;;;;;;6113126;23;114270;-78
2023/07/10 04:54:02;;;;;;;9.40;7.50;;;25.80;37.50;;;;;;6114619;23;114069;-78
2023/07/10 04:56:29;;;;;;;10.88;7.70;;;25.90;37.80;;;;;;6114210;23;115879;-78
2023/07/10 04:58:57;;;;;;;9.48;7.70;;;26.00;37.40;;;;;;6114076;23;115879;-78
2023/07/10 05:01:29;;;;;;;8.45;6.85;;;26.00;37.20;;;;;;6112798;23;114642;-78
2023/07/10 05:03:57;;;;;;;9.07;7.80;;;26.10;37.00;;;;;;6113203;23;114231;-78
2023/07/10 05:06:24;;;;;;;8.75;7.07;;;26.00;36.60;;;;;;6111038;23;115968;-78
2023/07/10 05:08:54;;;;;;;9.88;7.25;;;25.90;37.00;;;;;;6113411;22;116153;-78
2023/07/10 05:11:22;;;;;;;10.50;7.40;;;25.90;37.40;;;;;;6138839;22;114344;-78
2023/07/10 05:13:50;;;;;;;8.07;6.88;;;25.90;37.00;;;;;;6113374;23;114266;-78
2023/07/10 05:16:17;;;;;;;7.63;6.28;;;25.80;37.10;;;;;;6112967;22;115647;-78
2023/07/10 05:18:46;;;;;;;10.65;6.85;;;25.70;37.50;;;;;;6112975;22;114601;-78
2023/07/10 05:21:13;;;;;;;7.50;6.70;;;25.80;37.50;;;;;;6112555;23;114251;-78
2023/07/10 05:23:40;;;;;;;8.95;6.90;;;25.80;36.90;;;;;;6113409;22;114571;-78
2023/07/10 05:26:11;;;;;;;7.97;6.88;;;25.80;37.10;;;;;;6111474;23;114963;-77
2023/07/10 05:28:38;;;;;;;8.18;6.55;;;25.80;37.00;;;;;;6113088;23;116016;-78
2023/07/10 05:31:07;;;;;;;9.57;6.90;;;25.80;36.80;;;;;;6112311;23;114505;-77
2023/07/10 05:33:35;;;;;;;8.27;6.10;;;25.80;37.40;;;;;;6112512;23;114369;-77
2023/07/10 05:36:04;;;;;;;9.15;6.85;;;25.80;37.60;;;;;;6113592;23;116092;-78
2023/07/10 05:38:33;;;;;;;6.72;6.03;;;25.90;36.90;;;;;;6113563;23;115307;-77
2023/07/10 05:41:01;;;;;;;10.93;6.18;;;25.90;36.50;;;;;;6114001;23;114125;-78
2023/07/10 05:43:29;;;;;;;8.02;6.53;;;26.00;36.80;;;;;;6112778;23;114416;-78
2023/07/10 05:45:57;;;;;;;8.68;7.00;;;25.90;37.50;;;;;;6113411;23;114843;-78
2023/07/10 05:48:25;;;;;;;9.40;6.30;;;26.00;37.20;;;;;;6112627;23;115110;-77
2023/07/10 05:50:53;;;;;;;7.05;6.32;;;25.90;37.40;;;;;;6113754;23;114148;-77
2023/07/10 05:53:20;;;;;;;6.97;5.68;;;26.00;37.10;;;;;;6113239;23;114547;-78
2023/07/10 05:55:49;;;;;;;8.05;5.80;;;26.10;36.70;;;;;;6112478;23;114973;-78
2023/07/10 05:58:17;;;;;;;9.02;6.68;;;26.30;36.70;;;;;;6113000;23;115798;-78
2023/07/10 06:00:46;;;;;;;6.65;6.00;;;26.50;36.90;;;;;;6113896;23;114205;-78
2023/07/10 06:03:13;;;;;;;7.38;6.35;;;26.60;36.30;;;;;;6087715;23;114267;-78
2023/07/10 06:05:41;;;;;;;6.50;5.80;;;26.80;36.30;;;;;;6113167;22;114813;-78
2023/07/10 06:08:09;;;;;;;8.27;6.28;;;26.90;36.40;;;;;;6112966;23;115838;-78
2023/07/10 06:10:36;;;;;;;7.95;6.10;;;27.00;36.30;;;;;;6112597;23;114189;-78
2023/07/10 06:13:03;;;;;;;7.15;6.35;;;27.10;36.10;;;;;;6112923;23;114089;-78
2023/07/10 06:15:30;;;;;;;7.57;6.13;;;27.30;36.20;;;;;;6112830;23;113924;-78
2023/07/10 06:17:59;;;;;;;9.90;6.30;;;27.40;35.70;;;;;;6062804;23;114625;-78
2023/07/10 06:20:26;;;;;;;9.35;6.30;;;27.50;35.30;;;;;;6112027;23;114222;-78
2023/07/10 06:22:54;;;;;;;8.63;6.07;;;27.60;35.50;;;;;;6113525;23;114407;-78
2023/07/10 06:25:21;;;;;;;7.03;5.88;;;27.70;35.40;;;;;;6113415;23;114868;-78
2023/07/10 06:27:48;;;;;;;7.13;6.07;;;27.80;35.20;;;;;;6112443;23;116921;-79
2023/07/10 06:30:18;;;;;;;7.40;5.85;;;27.80;35.00;;;;;;6113982;23;114228;-78
2023/07/10 06:32:46;;;;;;;6.70;5.85;;;27.80;35.30;;;;;;6110936;23;114398;-78
2023/07/10 06:35:14;;;;;;;7.43;5.85;;;27.80;35.20;;;;;;6086995;23;114952;-77
2023/07/10 06:37:41;;;;;;;8.25;5.85;;;27.80;35.40;;;;;;6114050;23;115018;-77
2023/07/10 06:40:10;;;;;;;7.20;5.93;;;27.80;35.40;;;;;;6113621;23;114087;-78
2023/07/10 06:42:37;;;;;;;7.28;6.03;;;27.90;35.80;;;;;;6112186;23;114263;-78
2023/07/10 06:45:07;;;;;;;8.23;6.65;;;28.00;35.60;;;;;;6110238;23;116068;-77
2023/07/10 06:47:42;;;;;;;9.35;5.95;;;28.10;35.60;;;;;;6110449;23;114813;-77
2023/07/10 06:50:11;;;;;;;16.17;7.22;;;28.30;35.20;;;;;;6111492;23;114381;-78
2023/07/10 06:52:39;;;;;;;9.85;6.70;;;28.40;35.20;;;;;;6111620;23;114288;-77
2023/07/10 06:55:07;;;;;;;9.30;6.15;;;28.50;34.60;;;;;;6113162;23;115356;-77
2023/07/10 06:57:35;;;;;;;7.85;5.55;;;28.60;34.50;;;;;;6111482;23;114659;-77
2023/07/10 07:00:04;;;;;;;9.13;6.05;;;28.80;34.70;;;;;;6114229;23;114268;-78
2023/07/10 07:02:31;;;;;;;9.65;6.05;;;28.90;34.60;;;;;;6113071;23;114131;-77
2023/07/10 07:04:58;;;;;;;7.45;5.65;;;29.00;33.90;;;;;;6113426;23;114950;-78
2023/07/10 07:07:25;;;;;;;7.78;6.80;;;29.10;34.00;;;;;;6111899;23;114745;-78
2023/07/10 07:09:54;;;;;;;7.32;6.30;;;29.10;33.40;;;;;;6113558;23;114188;-77
2023/07/10 07:12:21;;;;;;;8.27;5.68;;;29.30;33.70;;;;;;6114391;23;113989;-77
2023/07/10 07:14:49;;;;;;;7.78;6.28;;;29.30;33.00;;;;;;6136556;22;115095;-77
2023/07/10 07:17:16;;;;;;;7.65;6.25;;;29.20;33.00;;;;;;6112955;22;115593;-77
2023/07/10 07:19:44;;;;;;;7.00;5.53;;;29.00;33.20;;;;;;6117011;23;114240;-77
2023/07/10 07:22:13;;;;;;;8.77;7.43;;;29.00;33.50;;;;;;6114864;23;114264;-78
2023/07/10 07:24:40;;;;;;;9.00;6.97;;;29.00;33.30;;;;;;6112030;23;114911;-78
2023/07/10 07:27:07;;;;;;;8.52;5.72;;;29.00;33.40;;;;;;6113597;23;115222;-77
2023/07/10 07:29:35;;;;;;;7.10;5.30;;;29.10;33.30;;;;;;6088356;23;114175;-77
2023/07/10 07:32:03;;;;;;;8.73;6.55;;;29.10;33.30;;;;;;6114271;23;114221;-78
2023/07/10 07:34:30;;;;;;;6.22;5.60;;;29.20;33.70;;;;;;6112529;23;114879;-78
2023/07/10 07:36:57;;;;;;;7.68;6.05;;;29.20;33.50;;;;;;6136826;22;114528;-78
2023/07/10 07:39:30;;;;;;;6.55;5.20;;;29.20;33.00;;;;;;6088418;23;114220;-78
2023/07/10 07:42:00;;;;;;;8.18;5.50;;;29.10;32.80;;;;;;6114547;23;113995;-78
2023/07/10 07:44:28;;;;;;;11.77;9.10;;;29.00;32.90;;;;;;6111696;23;115255;-77
2023/07/10 07:46:56;;;;;;;9.02;6.10;;;28.90;33.20;;;;;;6136644;22;115956;-77
2023/07/10 07:49:24;;;;;;;6.10;5.50;;;28.80;32.90;;;;;;6114765;23;114113;-77
2023/07/10 07:51:52;;;;;;;7.20;5.82;;;28.70;33.00;;;;;;6113408;23;114167;-77
2023/07/10 07:54:22;;;;;;;8.25;5.95;;;28.60;33.10;;;;;;6113510;23;114831;-78
2023/07/10 07:56:49;;;;;;;8.88;6.22;;;28.60;33.00;;;;;;6113367;23;114637;-78
2023/07/10 07:59:18;;;;;;;11.07;6.38;;;28.50;33.30;;;;;;6112679;23;114326;-78
2023/07/10 08:01:46;;;;;;;7.90;6.18;;;28.60;33.60;;;;;;6112970;23;114319;-78
2023/07/10 08:04:13;;;;;;;8.90;6.20;;;28.50;33.50;;;;;;6112925;23;114876;-78
2023/07/10 08:06:40;;;;;;;7.88;6.15;;;28.50;33.30;;;;;;6112957;22;116785;-78
2023/07/10 08:09:10;;;;;;;9.32;5.90;;;28.50;33.30;;;;;;6114471;23;114234;-78
2023/07/10 08:11:37;;;;;;;8.27;5.95;;;28.50;32.80;;;;;;6113379;22;114230;-78
2023/07/10 08:14:05;;;;;;;8.20;6.40;;;28.50;32.70;;;;;;6113154;23;115357;-78
2023/07/10 08:16:32;;;;;;;8.70;5.95;;;28.50;33.10;;;;;;6113430;23;114709;-78
2023/07/10 08:19:00;;;;;;;7.47;5.82;;;28.60;33.30;;;;;;6114326;22;113945;-78
2023/07/10 08:21:27;;;;;;;6.10;5.43;;;28.70;33.50;;;;;;6112734;23;114313;-78
2023/07/10 08:23:54;;;;;;;7.55;5.65;;;28.80;33.10;;;;;;6112315;23;114935;-78
2023/07/10 08:26:22;;;;;;;8.70;6.10;;;28.90;33.30;;;;;;6113153;23;114742;-78
2023/07/10 08:28:50;;;;;;;8.48;5.88;;;29.00;33.70;;;;;;6113821;23;114243;-78
2023/07/10 08:31:18;;;;;;;6.72;5.75;;;29.00;33.30;;;;;;6112934;23;114272;-78
2023/07/10 08:33:45;;;;;;;9.23;7.03;;;29.00;33.90;;;;;;6112977;23;114778;-78
2023/07/10 08:36:12;;;;;;;7.85;6.13;;;29.00;34.60;;;;;;6113068;23;114769;-78
2023/07/10 08:38:39;;;;;;;8.35;6.10;;;29.10;34.40;;;;;;6114417;23;114338;-78
2023/07/10 08:41:18;;;;;;;18.67;6.63;;;29.20;34.50;;;;;;6113704;23;114170;-78
2023/07/10 08:43:46;;;;;;;10.80;6.10;;;29.40;35.20;;;;;;6137294;22;114381;-78
2023/07/10 08:46:27;;;;;;;7.85;5.70;;;29.50;34.20;;;;;;6088483;23;115679;-78
2023/07/10 08:49:29;;;;;;;7.43;5.40;;;29.50;33.40;;;;;;6088676;23;114001;-78
2023/07/10 08:52:07;;;;;;;8.52;5.70;;;29.40;32.50;;;;;;6113143;23;114668;-78
2023/07/10 08:54:34;;;;;;;7.03;5.20;;;29.30;32.60;;;;;;6112142;22;114830;-78
2023/07/10 08:57:14;;;;;;;7.15;5.18;;;29.30;31.60;;;;;;6113645;22;114601;-78
2023/07/10 08:59:47;;;;;;;7.35;5.00;;;29.30;31.60;;;;;;6114940;23;113974;-78
2023/07/10 09:02:38;;;;;;;6.80;5.45;;;29.30;31.20;;;;;;6089193;23;114138;-78
2023/07/10 09:05:07;;;;;;;8.68;5.00;;;29.30;31.50;;;;;;6087492;23;115032;-78
2023/07/10 09:07:42;;;;;;;7.72;5.35;;;29.30;31.80;;;;;;6112063;22;114816;-78
2023/07/10 09:10:24;;;;;;;7.75;5.65;;;29.30;31.30;;;;;;6112994;23;114246;-78
2023/07/10 09:12:59;;;;;;;9.40;4.85;;;29.30;31.10;;;;;;6113485;23;114067;-78
2023/07/10 09:15:35;;;;;;;6.65;4.75;;;29.50;30.10;;;;;;6112516;23;114866;-78
2023/07/10 09:18:38;;;;;;;5.80;4.97;;;29.70;30.60;;;;;;6112609;23;114605;-78
2023/07/10 09:21:19;;;;;;;6.45;5.30;;;29.90;29.90;;;;;;6113753;23;114304;-78
2023/07/10 09:23:47;;;;;;;6.57;4.53;;;30.00;29.50;;;;;;6112032;23;114405;-78
2023/07/10 09:26:18;;;;;;;7.72;4.88;;;29.80;28.40;;;;;;6086383;23;115060;-77
2023/07/10 09:29:11;;;;;;;8.25;5.30;;;29.80;28.50;;;;;;6086946;23;114553;-78
2023/07/10 09:31:56;;;;;;;7.43;4.90;;;29.90;28.80;;;;;;6113497;23;114179;-78
2023/07/10 09:34:28;;;;;;;8.05;5.15;;;30.00;28.60;;;;;;6113567;23;114196;-78
2023/07/10 09:36:58;;;;;;;7.10;4.97;;;30.10;28.00;;;;;;6110900;23;117074;-78
2023/07/10 09:39:30;;;;;;;6.90;4.72;;;30.10;28.10;;;;;;6111385;23;116672;-79
2023/07/10 09:41:59;;;;;;;6.03;4.47;;;30.10;27.70;;;;;;6087807;23;114466;-78
2023/07/10 09:44:36;;;;;;;7.35;4.90;;;30.20;27.20;;;;;;6113568;23;114553;-78
2023/07/10 09:47:07;;;;;;;10.85;4.82;;;30.30;27.80;;;;;;6112933;23;115223;-78
2023/07/10 09:49:36;;;;;;;6.78;4.68;;;30.30;27.70;;;;;;6112488;23;115076;-78
2023/07/10 09:52:04;;;;;;;7.80;5.05;;;30.30;27.70;;;;;;6112636;23;114163;-78
2023/07/10 09:54:35;;;;;;;6.05;5.25;;;30.10;28.30;;;;;;6114006;23;114253;-78
2023/07/10 09:57:10;;;;;;;5.75;4.70;;;30.20;28.50;;;;;;6111714;23;114932;-79
2023/07/10 09:59:37;;;;;;;6.97;5.10;;;30.20;28.50;;;;;;6112724;23;116674;-79
2023/07/10 10:02:18;;;;;;;5.32;4.75;;;30.10;28.10;;;;;;6114248;23;114272;-78
2023/07/10 10:04:52;;;;;;;5.35;4.53;;;30.10;28.40;;;;;;6113883;22;114210;-78
2023/07/10 10:07:22;;;;;;;9.07;5.22;;;30.10;28.30;;;;;;6110735;23;116285;-77
2023/07/10 10:10:26;;;;;;;5.57;4.82;;;30.10;28.00;;;;;;6111507;23;114516;-77
2023/07/10 10:13:00;;;;;;;8.10;4.78;;;30.00;28.60;;;;;;6067530;23;114561;-78
2023/07/10 10:15:36;;;;;;;14.43;5.00;;;29.80;29.70;;;;;;6114293;23;114181;-77
2023/07/10 10:18:05;;;;;;;6.32;4.65;;;29.80;28.70;;;;;;6112538;23;115479;-78
2023/07/10 10:20:33;;;;;;;7.03;5.53;;;29.70;28.80;;;;;;6086671;23;114515;-77
2023/07/10 10:23:01;;;;;;;6.32;5.00;;;29.80;29.10;;;;;;6112455;23;114185;-78
2023/07/10 10:25:34;;;;;;;8.95;5.38;;;29.80;29.00;;;;;;6114124;23;114155;-77
2023/07/10 10:28:22;;;;;;;7.30;5.30;;;29.80;28.50;;;;;;6111235;23;114761;-78
2023/07/10 10:31:03;;;;;;;7.13;5.18;;;29.90;28.50;;;;;;6088293;23;115131;-78
2023/07/10 10:33:40;;;;;;;6.50;4.80;;;30.10;28.80;;;;;;6112332;23;114309;-78
2023/07/10 10:36:25;;;;;;;5.97;5.20;;;30.30;28.50;;;;;;6113334;23;114350;-78
2023/07/10 10:39:02;;;;;;;5.72;4.50;;;30.40;28.20;;;;;;6113568;23;115068;-79
2023/07/10 10:41:38;;;;;;;8.10;5.20;;;30.40;28.00;;;;;;6112567;23;115996;-79
2023/07/10 10:44:10;;;;;;;5.35;4.82;;;30.60;28.00;;;;;;6115587;22;114219;-79
2023/07/10 10:46:46;;;;;;;6.38;4.60;;;30.60;28.10;;;;;;6113106;22;114289;-78
2023/07/10 10:49:25;;;;;;;8.63;4.88;;;30.70;28.00;;;;;;6136633;22;116605;-78
2023/07/10 10:52:16;;;;;;;6.03;4.80;;;30.80;28.20;;;;;;6113633;23;115765;-78
2023/07/10 10:54:49;;;;;;;8.45;5.45;;;30.80;27.90;;;;;;6113279;23;114159;-78
2023/07/10 10:57:32;;;;;;;8.93;5.60;;;30.80;27.80;;;;;;6114348;23;114005;-78
2023/07/10 11:00:25;;;;;;;7.22;5.20;;;30.70;27.80;;;;;;6111226;23;115130;-77
2023/07/10 11:03:11;;;;;;;7.93;5.20;;;30.70;28.10;;;;;;6111879;23;114679;-77
2023/07/10 11:05:47;;;;;;;6.85;5.20;;;30.60;28.70;;;;;;6114071;23;114123;-78
2023/07/10 11:08:23;;;;;;;8.35;5.22;;;30.60;29.10;;;;;;6112965;23;114199;-78
2023/07/10 11:10:54;;;;;;;6.43;5.30;;;30.60;28.80;;;;;;6111853;23;114781;-78
2023/07/10 11:13:27;;;;;;;7.65;5.05;;;30.40;28.20;;;;;;6113175;23;115143;-78
2023/07/10 11:15:55;;;;;;;9.13;5.23;;;30.40;28.20;;;;;;6114324;22;114202;-77
2023/07/10 11:18:22;;;;;;;8.68;6.10;;;30.30;28.40;;;;;;6113381;23;114321;-77
2023/07/10 11:20:49;;;;;;;9.55;6.45;;;30.40;28.70;;;;;;6087267;23;114817;-78
2023/07/10 11:23:35;;;;;;;7.38;5.65;;;30.40;28.80;;;;;;6113075;23;114525;-77
2023/07/10 11:26:07;;;;;;;8.27;5.22;;;30.40;28.40;;;;;;6111887;23;114300;-77
2023/07/10 11:28:35;;;;;;;7.88;5.82;;;30.30;28.20;;;;;;6112495;23;114120;-77
2023/07/10 11:31:41;;;;;;;11.20;5.45;;;30.30;28.50;;;;;;6112849;23;116166;-78
2023/07/10 11:34:14;;;;;;;10.40;5.90;;;30.30;28.80;;;;;;6050701;23;114690;-78
2023/07/10 11:36:44;;;;;;;7.53;5.70;;;30.20;28.90;;;;;;6052396;23;114656;-78
2023/07/10 11:39:17;;;;;;;7.82;5.82;;;30.20;29.80;;;;;;6071067;23;114496;-78
2023/07/10 11:41:44;;;;;;;7.32;5.10;;;30.20;29.70;;;;;;6112789;23;116991;-78
2023/07/10 11:44:19;;;;;;;7.40;5.57;;;30.20;29.60;;;;;;6113281;23;115680;-78
2023/07/10 11:47:02;;;;;;;8.43;5.75;;;30.10;29.20;;;;;;6114028;23;114272;-79
2023/07/10 11:49:34;;;;;;;11.93;8.88;;;30.10;29.60;;;;;;6112963;23;114212;-78
2023/07/10 11:52:13;;;;;;;10.00;5.95;;;29.90;30.10;;;;;;6110989;23;117670;-78
2023/07/10 11:54:47;;;;;;;8.00;5.35;;;29.90;29.40;;;;;;6138327;22;114612;-78
2023/07/10 11:57:22;;;;;;;;;;;29.80;30.00;;;;;;6115403;23;114233;-78
2023/07/10 11:59:53;;;;;;;7.82;5.30;;;29.70;30.00;;;;;;6113077;23;114245;-78
2023/07/10 12:02:27;;;;;;;8.57;5.45;;;29.60;30.20;;;;;;6113445;23;114975;-78
2023/07/10 12:04:54;;;;;;;;;;;29.50;30.10;;;;;;6114132;22;114503;-78
2023/07/10 12:07:21;;;;;;;6.43;5.30;;;29.30;30.20;;;;;;6113519;23;113956;-78
2023/07/10 12:09:50;;;;;;;9.10;5.68;;;29.30;30.60;;;;;;6139608;22;114487;-78
2023/07/10 12:12:18;;;;;;;5.70;5.00;;;29.30;30.80;;;;;;6088042;23;114029;-78
2023/07/10 12:14:45;;;;;;;8.10;6.40;;;29.30;31.20;;;;;;6112545;23;114656;-78
2023/07/10 12:17:17;;;;;;;7.50;5.82;;;29.30;31.60;;;;;;6114263;23;114281;-78
2023/07/10 12:20:14;;;;;;;6.95;6.00;;;29.30;31.90;;;;;;6114652;23;113845;-78
2023/07/10 12:22:41;;;;;;;8.63;5.82;;;29.30;32.10;;;;;;6113475;23;114723;-78
2023/07/10 12:25:13;;;;;;;8.15;5.38;;;29.40;31.90;;;;;;6112133;23;115663;-78
2023/07/10 12:27:43;;;;;;;11.57;6.05;;;29.40;31.70;;;;;;6088051;23;114336;-78
2023/07/10 12:30:16;;;;;;;12.77;6.15;;;29.50;32.10;;;;;;6112938;23;114318;-78
2023/07/10 12:32:43;;;;;;;8.77;5.72;;;29.60;32.30;;;;;;6111261;23;115488;-79
2023/07/10 12:35:16;;;;;;;7.60;5.88;;;29.60;32.30;;;;;;6087156;23;117577;-77
2023/07/10 12:37:47;;;;;;;9.37;5.33;;;29.80;31.70;;;;;;6112699;23;114346;-78
2023/07/10 12:40:17;;;;;;;9.50;5.70;;;29.80;31.70;;;;;;6063601;23;114189;-77
2023/07/10 12:42:46;;;;;;;8.38;5.45;;;29.80;31.50;;;;;;6112397;23;114828;-78
2023/07/10 12:45:17;;;;;;;7.78;5.40;;;29.80;31.70;;;;;;6112745;23;114926;-78
2023/07/10 12:47:55;;;;;;;6.63;5.70;;;29.90;31.90;;;;;;6114103;23;114360;-78
2023/07/10 12:50:34;;;;;;;7.47;5.22;;;30.00;32.10;;;;;;6112541;23;114179;-78